createdAt,value
2019-04-20T00:00:59.756Z,6.87
2019-04-20T00:03:36.703Z,6.87
2019-04-20T00:06:01.523Z,7.33
2019-04-20T00:08:36.108Z,7.20
2019-04-20T00:11:10.608Z,6.47
2019-04-20T00:13:47.757Z,6.53
2019-04-20T00:16:08.372Z,6.40
2019-04-20T00:18:42.967Z,7.30
2019-04-20T00:21:28.936Z,6.97
2019-04-20T00:24:11.457Z,6.20
2019-04-20T00:27:04.753Z,9.47
2019-04-20T00:29:27.721Z,7.22
2019-04-20T00:31:48.946Z,9.50
2019-04-20T00:34:17.296Z,7.47
2019-04-20T00:36:41.153Z,7.30
2019-04-20T00:39:13.188Z,6.87
2019-04-20T00:41:49.034Z,7.03
2019-04-20T00:44:22.068Z,8.23
2019-04-20T00:46:57.933Z,7.07
2019-04-20T00:49:30.521Z,7.47
2019-04-20T00:52:13.127Z,7.30
2019-04-20T00:54:20.146Z,7.37
2019-04-20T00:56:49.958Z,7.13
2019-04-20T00:59:31.604Z,7.43
2019-04-20T01:02:09.090Z,7.20
2019-04-20T01:04:41.069Z,7.73
2019-04-20T01:07:38.569Z,7.50
2019-04-20T01:10:13.146Z,8.20
2019-04-20T01:12:44.492Z,7.63
2019-04-20T01:15:26.559Z,7.27
2019-04-20T01:17:46.851Z,8.03
2019-04-20T01:20:16.574Z,7.93
2019-04-20T01:22:55.981Z,7.87
2019-04-20T01:25:26.454Z,8.20
2019-04-20T01:28:07.778Z,8.03
2019-04-20T01:30:28.418Z,8.27
2019-04-20T01:33:04.847Z,7.90
2019-04-20T01:35:39.446Z,8.33
2019-04-20T01:38:12.190Z,7.83
2019-04-20T01:40:27.503Z,7.37
2019-04-20T01:42:57.541Z,7.70
2019-04-20T01:45:32.843Z,7.70
2019-04-20T01:48:01.239Z,7.87
2019-04-20T01:50:34.990Z,7.63
2019-04-20T01:53:13.866Z,7.87
2019-04-20T01:55:50.432Z,8.27
2019-04-20T01:58:35.187Z,8.07
2019-04-20T02:01:09.809Z,8.20
2019-04-20T02:03:48.473Z,10.33
2019-04-20T02:06:20.196Z,8.27
2019-04-20T02:08:52.896Z,8.30
2019-04-20T02:11:26.076Z,8.87
2019-04-20T02:13:57.247Z,8.00
2019-04-20T02:16:31.775Z,8.70
2019-04-20T02:19:09.077Z,8.23
2019-04-20T02:21:45.070Z,8.60
2019-04-20T02:24:02.701Z,8.67
2019-04-20T02:26:30.224Z,7.57
2019-04-20T02:29:24.636Z,9.27
2019-04-20T02:34:54.652Z,7.70
2019-04-20T02:37:49.449Z,8.20
2019-04-20T02:40:09.207Z,8.90
2019-04-20T02:42:46.682Z,8.77
2019-04-20T02:45:17.552Z,8.97
2019-04-20T02:47:45.591Z,9.10
2019-04-20T02:52:56.806Z,8.70
2019-04-20T02:55:28.184Z,9.77
2019-04-20T02:57:55.116Z,8.97
2019-04-20T03:02:36.902Z,9.07
2019-04-20T03:05:08.164Z,10.13
2019-04-20T03:07:41.060Z,9.73
2019-04-20T03:10:14.085Z,14.53
2019-04-20T03:12:44.810Z,9.73
2019-04-20T03:15:15.079Z,10.20
2019-04-20T03:17:51.172Z,10.00
2019-04-20T03:20:23.296Z,9.70
2019-04-20T03:23:21.350Z,10.10
2019-04-20T03:25:49.286Z,10.23
2019-04-20T03:28:16.723Z,13.23
2019-04-20T03:36:12.405Z,10.60
2019-04-20T03:38:33.280Z,10.43
2019-04-20T03:40:54.247Z,10.20
2019-04-20T03:43:13.898Z,11.20
2019-04-20T03:45:52.675Z,10.60
2019-04-20T03:48:33.345Z,10.87
2019-04-20T03:51:09.016Z,10.53
2019-04-20T03:53:39.544Z,10.50
2019-04-20T03:56:36.562Z,10.30
2019-04-20T03:59:01.774Z,11.33
2019-04-20T04:02:09.294Z,10.77
2019-04-20T04:04:27.638Z,10.23
2019-04-20T04:06:44.836Z,10.83
2019-04-20T04:09:22.183Z,10.33
2019-04-20T04:11:56.138Z,10.40
2019-04-20T04:14:13.635Z,11.23
2019-04-20T04:16:49.837Z,10.67
2019-04-20T04:19:22.675Z,10.47
2019-04-20T04:22:01.350Z,10.77
2019-04-20T04:24:29.205Z,10.97
2019-04-20T04:27:04.676Z,11.47
2019-04-20T04:29:44.171Z,11.17
2019-04-20T04:32:49.688Z,11.80
2019-04-20T04:34:45.894Z,10.87
2019-04-20T04:37:17.566Z,11.33
2019-04-20T04:39:51.780Z,11.90
2019-04-20T04:42:34.204Z,12.10
2019-04-20T04:44:42.215Z,11.53
2019-04-20T04:47:06.345Z,11.43
2019-04-20T04:49:38.182Z,11.43
2019-04-20T04:52:10.225Z,11.87
2019-04-20T04:54:46.249Z,11.87
2019-04-20T04:57:07.409Z,12.27
2019-04-20T04:59:38.429Z,11.93
2019-04-20T05:02:09.687Z,12.20
2019-04-20T05:05:25.448Z,12.70
2019-04-20T05:07:49.607Z,11.40
2019-04-20T05:10:07.742Z,12.37
2019-04-20T05:12:39.267Z,11.83
2019-04-20T05:15:15.980Z,11.80
2019-04-20T05:18:04.362Z,11.90
2019-04-20T05:20:38.780Z,13.90
2019-04-20T05:23:12.987Z,12.40
2019-04-20T05:26:07.897Z,11.30
2019-04-20T05:28:27.821Z,11.43
2019-04-20T05:30:52.480Z,11.17
2019-04-20T05:33:27.506Z,11.37
2019-04-20T05:36:13.882Z,12.33
2019-04-20T05:41:11.678Z,11.10
2019-04-20T05:43:54.755Z,10.20
2019-04-20T05:46:32.005Z,9.10
2019-04-20T05:49:02.778Z,10.97
2019-04-20T05:51:36.583Z,10.80
2019-04-20T05:54:09.865Z,10.00
2019-04-20T05:56:40.274Z,10.68
2019-04-20T05:59:05.852Z,9.18
2019-04-20T06:01:47.495Z,11.53
2019-04-20T06:04:10.445Z,9.13
2019-04-20T06:06:46.567Z,13.85
2019-04-20T06:09:18.240Z,9.53
2019-04-20T06:12:01.367Z,9.40
2019-04-20T06:14:10.212Z,9.60
2019-04-20T06:17:15.923Z,10.23
2019-04-20T06:19:48.854Z,9.20
2019-04-20T06:22:33.708Z,12.37
2019-04-20T06:25:21.964Z,10.28
2019-04-20T06:27:41.068Z,9.90
2019-04-20T06:30:05.870Z,10.18
2019-04-20T06:33:07.852Z,10.18
2019-04-20T06:35:59.054Z,13.50
2019-04-20T06:38:11.719Z,11.25
2019-04-20T06:41:00.621Z,9.05
2019-04-20T06:43:04.120Z,9.08
2019-04-20T06:45:44.448Z,8.80
2019-04-20T06:48:20.341Z,9.65
2019-04-20T06:50:38.824Z,9.20
2019-04-20T06:53:37.004Z,9.20
2019-04-20T06:56:10.059Z,8.78
2019-04-20T06:58:46.461Z,8.53
2019-04-20T07:01:10.869Z,9.95
2019-04-20T07:03:51.360Z,7.92
2019-04-20T07:06:30.877Z,7.55
2019-04-20T07:11:19.879Z,11.10
2019-04-20T07:13:36.099Z,9.28
2019-04-20T07:16:33.016Z,9.55
2019-04-20T07:19:22.958Z,7.75
2019-04-20T07:22:27.092Z,10.30
2019-04-20T07:24:59.263Z,7.70
2019-04-20T07:27:19.557Z,8.33
2019-04-20T07:29:51.895Z,11.70
2019-04-20T07:32:19.491Z,9.75
2019-04-20T07:34:56.699Z,7.80
2019-04-20T07:40:16.196Z,8.53
2019-04-20T07:42:49.176Z,8.75
2019-04-20T07:45:24.064Z,9.53
2019-04-20T07:48:09.709Z,8.03
2019-04-20T07:50:12.890Z,7.15
2019-04-20T07:52:39.679Z,8.30
2019-04-20T07:57:47.105Z,8.40
2019-04-20T08:00:35.562Z,5.25
2019-04-20T08:03:20.411Z,7.37
2019-04-20T08:05:49.866Z,8.60
2019-04-20T08:08:40.644Z,5.83
2019-04-20T08:11:01.280Z,8.18
2019-04-20T08:13:40.346Z,6.00
2019-04-20T08:16:06.671Z,7.05
2019-04-20T08:18:44.493Z,5.83
2019-04-20T08:21:09.598Z,7.55
2019-04-20T08:23:39.059Z,5.62
2019-04-20T08:26:01.794Z,7.30
2019-04-20T08:28:37.185Z,6.37
2019-04-20T08:31:33.770Z,6.25
2019-04-20T08:34:24.716Z,6.55
2019-04-20T08:36:47.988Z,5.47
2019-04-20T08:41:53.219Z,6.37
2019-04-20T08:44:42.734Z,6.50
2019-04-20T08:46:58.484Z,7.17
2019-04-20T08:49:29.579Z,5.67
2019-04-20T08:52:06.078Z,6.00
2019-04-20T08:54:21.636Z,7.10
2019-04-20T08:56:45.186Z,5.62
2019-04-20T08:59:09.569Z,6.30
2019-04-20T09:01:40.879Z,7.97
2019-04-20T09:04:17.683Z,7.53
2019-04-20T09:06:57.411Z,5.87
2019-04-20T09:09:49.960Z,5.67
2019-04-20T09:12:05.317Z,5.20
2019-04-20T09:14:21.528Z,5.95
2019-04-20T09:17:08.121Z,8.43
2019-04-20T09:19:47.051Z,6.37
2019-04-20T09:22:34.080Z,8.80
2019-04-20T09:25:36.484Z,6.95
2019-04-20T09:27:38.380Z,4.85
2019-04-20T09:30:17.716Z,6.40
2019-04-20T09:32:59.247Z,4.83
2019-04-20T09:35:30.132Z,6.80
2019-04-20T09:38:01.736Z,5.25
2019-04-20T09:40:41.653Z,5.20
2019-04-20T09:43:10.880Z,4.47
2019-04-20T09:45:48.557Z,5.55
2019-04-20T09:48:23.969Z,5.00
2019-04-20T09:51:12.707Z,4.97
2019-04-20T09:53:33.882Z,5.83
2019-04-20T09:56:07.535Z,5.60
2019-04-20T09:58:38.190Z,4.90
2019-04-20T10:01:09.759Z,4.65
2019-04-20T10:03:26.840Z,4.45
2019-04-20T10:05:56.644Z,4.28
2019-04-20T10:08:26.753Z,4.78
2019-04-20T10:10:56.467Z,4.80
2019-04-20T10:13:27.168Z,3.92
2019-04-20T10:15:57.748Z,4.20
2019-04-20T10:18:28.200Z,5.90
2019-04-20T10:20:57.995Z,4.28
2019-04-20T10:23:27.767Z,5.47
2019-04-20T10:25:58.590Z,3.65
2019-04-20T10:28:29.645Z,4.67
2019-04-20T10:30:59.458Z,4.20
2019-04-20T10:33:29.198Z,3.87
2019-04-20T10:35:59.821Z,4.10
2019-04-20T10:38:33.752Z,4.22
2019-04-20T10:41:11.641Z,5.28
2019-04-20T10:43:35.070Z,3.85
2019-04-20T10:46:06.802Z,3.47
2019-04-20T10:48:42.988Z,5.40
2019-04-20T10:51:08.610Z,4.92
2019-04-20T10:53:38.417Z,5.10
2019-04-20T10:56:09.617Z,3.60
2019-04-20T10:58:40.042Z,4.12
2019-04-20T11:01:11.435Z,3.35
2019-04-20T11:03:42.637Z,3.72
2019-04-20T11:06:12.578Z,4.80
2019-04-20T11:08:42.546Z,4.00
2019-04-20T11:11:25.234Z,3.42
2019-04-20T11:13:51.137Z,4.62
2019-04-20T11:16:22.046Z,3.58
2019-04-20T11:18:53.495Z,3.25
2019-04-20T11:21:24.621Z,3.17
2019-04-20T11:23:56.152Z,3.75
2019-04-20T11:26:28.483Z,5.53
2019-04-20T11:28:58.336Z,4.33
2019-04-20T11:31:37.317Z,4.10
2019-04-20T11:34:00.414Z,3.40
2019-04-20T11:36:30.983Z,4.37
2019-04-20T11:39:03.044Z,3.72
2019-04-20T11:41:36.985Z,3.47
2019-04-20T11:44:05.895Z,5.35
2019-04-20T11:46:36.623Z,5.95
2019-04-20T11:49:07.896Z,4.00
2019-04-20T11:51:37.786Z,4.55
2019-04-20T11:54:08.263Z,4.17
2019-04-20T11:56:40.743Z,4.55
2019-04-20T11:59:09.597Z,4.40
2019-04-20T12:02:02.507Z,5.60
2019-04-20T12:04:44.213Z,4.92
2019-04-20T12:07:10.934Z,4.40
2019-04-20T12:09:41.837Z,4.45
2019-04-20T12:12:26.780Z,4.55
2019-04-20T12:14:43.023Z,5.55
2019-04-20T12:17:13.577Z,5.67
2019-04-20T12:19:43.885Z,4.10
2019-04-20T12:22:14.038Z,6.17
2019-04-20T12:24:44.791Z,4.15
2019-04-20T12:27:14.685Z,6.08
2019-04-20T12:29:45.652Z,4.53
2019-04-20T12:32:16.713Z,4.92
2019-04-20T12:34:47.455Z,6.83
2019-04-20T12:37:18.497Z,5.37
2019-04-20T12:39:49.181Z,4.85
2019-04-20T12:42:19.253Z,4.58
2019-04-20T12:44:50.079Z,6.08
2019-04-20T12:47:21.371Z,4.55
2019-04-20T12:49:51.720Z,5.10
2019-04-20T12:52:22.780Z,5.20
2019-04-20T12:54:52.597Z,6.90
2019-04-20T12:57:22.705Z,5.47
2019-04-20T12:59:53.902Z,8.10
2019-04-20T13:02:25.141Z,6.08
2019-04-20T13:04:55.380Z,7.37
2019-04-20T13:07:26.638Z,5.53
2019-04-20T13:09:56.882Z,6.05
2019-04-20T13:12:44.797Z,5.22
2019-04-20T13:15:38.333Z,5.10
2019-04-20T13:18:09.456Z,6.45
2019-04-20T13:20:39.763Z,5.85
2019-04-20T13:23:10.881Z,8.43
2019-04-20T13:25:41.206Z,7.85
2019-04-20T13:28:11.258Z,6.80
2019-04-20T13:30:41.902Z,8.50
2019-04-20T13:33:12.250Z,6.65
2019-04-20T13:35:42.288Z,7.05
2019-04-20T13:38:13.920Z,9.65
2019-04-20T13:40:44.033Z,9.70
2019-04-20T13:43:14.095Z,8.48
2019-04-20T13:45:44.743Z,7.40
2019-04-20T13:48:15.133Z,9.68
2019-04-20T13:50:46.387Z,6.78
2019-04-20T13:53:17.034Z,7.58
2019-04-20T13:55:47.724Z,8.58
2019-04-20T13:58:35.970Z,6.95
2019-04-20T14:01:23.223Z,7.78
2019-04-20T14:04:10.665Z,6.25
2019-04-20T14:06:41.479Z,8.25
2019-04-20T14:09:11.825Z,7.92
2019-04-20T14:11:43.331Z,9.50
2019-04-20T14:14:13.261Z,9.48
2019-04-20T14:16:43.118Z,8.85
2019-04-20T14:19:14.286Z,8.88
2019-04-20T14:21:44.413Z,7.85
2019-04-20T14:24:15.047Z,7.58
2019-04-20T14:26:45.759Z,8.18
2019-04-20T14:29:16.864Z,8.00
2019-04-20T14:31:47.918Z,8.95
2019-04-20T14:34:17.878Z,7.58
2019-04-20T14:36:48.819Z,10.75
2019-04-20T14:39:20.386Z,7.87
2019-04-20T14:41:51.912Z,11.80
2019-04-20T14:44:21.684Z,7.40
2019-04-20T14:46:52.087Z,9.63
2019-04-20T14:49:22.887Z,7.85
2019-04-20T14:51:54.590Z,7.55
2019-04-20T14:54:25.540Z,8.93
2019-04-20T14:56:55.879Z,7.28
2019-04-20T14:59:29.767Z,6.85
2019-04-20T15:02:08.729Z,11.08
2019-04-20T15:04:39.092Z,29.82
2019-04-20T15:07:10.736Z,12.43
2019-04-20T15:09:40.713Z,7.90
2019-04-20T15:12:10.996Z,7.50
2019-04-20T15:14:41.218Z,6.80
2019-04-20T15:17:12.500Z,9.23
2019-04-20T15:19:47.618Z,7.55
2019-04-20T15:22:33.796Z,7.53
2019-04-20T15:25:03.804Z,8.23
2019-04-20T15:27:33.505Z,9.58
2019-04-20T15:30:04.511Z,8.08
2019-04-20T15:32:34.283Z,8.83
2019-04-20T15:35:04.844Z,12.37
2019-04-20T15:37:35.140Z,8.63
2019-04-20T15:40:06.437Z,11.78
2019-04-20T15:42:49.330Z,11.80
2019-04-20T15:45:09.327Z,10.50
2019-04-20T15:47:40.337Z,6.85
2019-04-20T15:50:11.798Z,8.65
2019-04-20T15:52:49.438Z,6.80
2019-04-20T15:55:22.623Z,10.53
2019-04-20T15:57:48.155Z,7.47
2019-04-20T16:00:18.457Z,8.13
2019-04-20T16:02:56.858Z,7.85
2019-04-20T16:05:47.179Z,10.58
2019-04-20T16:08:38.764Z,7.40
2019-04-20T16:11:09.205Z,7.30
2019-04-20T16:13:43.997Z,8.35
2019-04-20T16:16:12.152Z,8.48
2019-04-20T16:18:43.226Z,7.50
2019-04-20T16:21:18.291Z,7.17
2019-04-20T16:24:16.936Z,8.70
2019-04-20T16:27:12.073Z,8.53
2019-04-20T16:29:41.921Z,9.40
2019-04-20T16:32:12.290Z,6.72
2019-04-20T16:34:42.550Z,8.55
2019-04-20T16:37:14.702Z,6.97
2019-04-20T16:39:46.369Z,6.37
2019-04-20T16:42:18.010Z,5.78
2019-04-20T16:44:49.165Z,7.42
2019-04-20T16:47:19.102Z,8.00
2019-04-20T16:49:50.867Z,9.08
2019-04-20T16:52:21.224Z,8.50
2019-04-20T16:54:51.318Z,8.40
2019-04-20T16:57:21.545Z,6.85
2019-04-20T16:59:54.730Z,6.08
2019-04-20T17:02:24.572Z,6.78
2019-04-20T17:04:56.270Z,9.98
2019-04-20T17:07:29.258Z,10.15
2019-04-20T17:10:00.088Z,10.43
2019-04-20T17:12:30.280Z,6.85
2019-04-20T17:15:01.284Z,7.17
2019-04-20T17:17:31.620Z,6.78
2019-04-20T17:20:01.896Z,8.90
2019-04-20T17:22:32.062Z,7.83
2019-04-20T17:25:02.180Z,6.92
2019-04-20T17:27:57.362Z,6.20
2019-04-20T17:30:45.137Z,8.65
2019-04-20T17:33:16.314Z,9.15
2019-04-20T17:35:59.374Z,6.50
2019-04-20T17:38:18.758Z,7.45
2019-04-20T17:41:03.047Z,48.35
2019-04-20T17:43:29.179Z,40.90
2019-04-20T17:46:00.649Z,11.40
2019-04-20T17:48:33.303Z,9.23
2019-04-20T17:51:16.855Z,8.43
2019-04-20T17:54:06.281Z,11.97
2019-04-20T17:56:36.258Z,19.55
2019-04-20T17:59:06.232Z,11.43
2019-04-20T18:02:07.792Z,20.65
2019-04-20T18:04:54.931Z,58.70
2019-04-20T18:07:18.344Z,22.27
2019-04-20T18:09:49.417Z,16.35
2019-04-20T18:12:07.582Z,55.43
2019-04-20T18:14:51.698Z,58.30
2019-04-20T18:17:29.347Z,14.43
2019-04-20T18:19:52.151Z,15.03
2019-04-20T18:22:23.568Z,16.82
2019-04-20T18:25:13.477Z,10.65
2019-04-20T18:27:41.132Z,10.88
2019-04-20T18:30:10.692Z,15.70
2019-04-20T18:32:33.607Z,14.75
2019-04-20T18:35:10.396Z,8.80
2019-04-20T18:37:45.353Z,13.25
2019-04-20T18:40:14.897Z,10.08
2019-04-20T18:42:45.720Z,10.20
2019-04-20T18:45:30.613Z,10.13
2019-04-20T18:48:06.594Z,10.78
2019-04-20T18:50:29.970Z,13.22
2019-04-20T18:52:51.638Z,17.55
2019-04-20T18:55:31.229Z,11.80
2019-04-20T18:57:53.056Z,13.93
2019-04-20T19:00:30.300Z,10.85
2019-04-20T19:03:01.369Z,14.65
2019-04-20T19:05:29.590Z,14.73
2019-04-20T19:08:04.613Z,13.10
2019-04-20T19:10:35.010Z,18.02
2019-04-20T19:13:08.447Z,15.55
2019-04-20T19:16:10.310Z,15.83
2019-04-20T19:19:03.925Z,11.57
2019-04-20T19:21:25.009Z,10.98
2019-04-20T19:24:03.335Z,13.30
2019-04-20T19:26:27.307Z,11.25
2019-04-20T19:29:08.738Z,13.58
2019-04-20T19:31:45.833Z,14.13
2019-04-20T19:34:20.853Z,13.95
2019-04-20T19:36:41.407Z,13.53
2019-04-20T19:39:21.341Z,15.55
2019-04-20T19:41:49.806Z,13.60
2019-04-20T19:44:21.344Z,17.70
2019-04-20T19:47:04.927Z,15.40
2019-04-20T19:49:25.382Z,13.58
2019-04-20T19:52:20.126Z,15.18
2019-04-20T19:54:41.071Z,13.40
2019-04-20T19:57:05.000Z,14.20
2019-04-20T19:59:29.367Z,13.18
2019-04-20T20:01:51.866Z,12.93
2019-04-20T20:04:21.761Z,16.02
2019-04-20T20:06:57.901Z,14.38
2019-04-20T20:09:23.900Z,14.13
2019-04-20T20:11:58.551Z,15.93
2019-04-20T20:14:32.885Z,13.85
2019-04-20T20:17:14.259Z,13.38
2019-04-20T20:19:45.682Z,13.98
2019-04-20T20:22:12.753Z,15.50
2019-04-20T20:24:31.460Z,15.05
2019-04-20T20:27:06.256Z,15.00
2019-04-20T20:29:38.428Z,16.80
2019-04-20T20:32:18.107Z,13.62
2019-04-20T20:34:43.167Z,13.30
2019-04-20T20:37:12.366Z,20.77
2019-04-20T20:39:40.394Z,17.48
2019-04-20T20:42:26.073Z,17.12
2019-04-20T20:44:51.766Z,14.53
2019-04-20T20:47:39.689Z,13.10
2019-04-20T20:50:08.258Z,14.58
2019-04-20T20:52:31.539Z,14.53
2019-04-20T20:54:54.045Z,14.18
2019-04-20T20:57:23.923Z,14.78
2019-04-20T20:59:57.384Z,13.90
2019-04-20T21:02:30.121Z,13.68
2019-04-20T21:04:53.551Z,15.60
2019-04-20T21:07:24.749Z,14.20
2019-04-20T21:09:54.865Z,17.50
2019-04-20T21:12:25.783Z,17.30
2019-04-20T21:15:00.378Z,13.43
2019-04-20T21:17:40.964Z,14.35
2019-04-20T21:20:15.679Z,17.20
2019-04-20T21:22:51.712Z,15.90
2019-04-20T21:25:03.460Z,18.23
2019-04-20T21:27:34.834Z,14.93
2019-04-20T21:30:15.575Z,16.82
2019-04-20T21:32:44.352Z,16.05
2019-04-20T21:35:13.861Z,15.15
2019-04-20T21:37:51.200Z,15.88
2019-04-20T21:40:23.809Z,14.20
2019-04-20T21:42:53.563Z,16.35
2019-04-20T21:45:23.030Z,18.50
2019-04-20T21:47:48.263Z,15.00
2019-04-20T21:50:34.886Z,20.65
2019-04-20T21:52:53.465Z,15.23
2019-04-20T21:55:21.817Z,23.85
2019-04-20T21:57:55.394Z,16.65
2019-04-20T22:00:44.569Z,17.10
2019-04-20T22:03:15.524Z,20.27
2019-04-20T22:05:46.434Z,18.07
2019-04-20T22:08:18.107Z,18.05
2019-04-20T22:10:50.055Z,17.82
2019-04-20T22:13:25.491Z,17.20
2019-04-20T22:15:59.496Z,20.15
2019-04-20T22:18:23.909Z,18.10
2019-04-20T22:21:05.960Z,17.92
2019-04-20T22:23:43.012Z,16.77
2019-04-20T22:26:08.617Z,18.37
2019-04-20T22:28:28.017Z,18.80
2019-04-20T22:30:58.294Z,19.92
2019-04-20T22:33:36.325Z,19.75
2019-04-20T22:36:07.619Z,19.85
2019-04-20T22:38:58.082Z,17.05
2019-04-20T22:41:27.797Z,16.80
2019-04-20T22:44:02.353Z,16.97
2019-04-20T22:46:33.629Z,16.27
2019-04-20T22:49:17.639Z,18.37
2019-04-20T22:51:47.538Z,18.98
2019-04-20T22:54:21.934Z,20.15
2019-04-20T22:56:47.318Z,17.00
2019-04-20T22:59:12.959Z,18.45
2019-04-20T23:01:45.803Z,15.80
2019-04-20T23:04:10.748Z,17.65
2019-04-20T23:06:44.704Z,17.87
2019-04-20T23:09:14.661Z,18.40
2019-04-20T23:11:45.085Z,15.05
2019-04-20T23:14:16.243Z,16.90
2019-04-20T23:16:50.651Z,16.10
2019-04-20T23:19:29.015Z,16.90
2019-04-20T23:21:57.559Z,20.20
2019-04-20T23:24:21.920Z,17.07
2019-04-20T23:26:53.066Z,16.83
2019-04-20T23:29:27.211Z,15.60
2019-04-20T23:31:59.644Z,17.53
2019-04-20T23:34:29.049Z,17.87
2019-04-20T23:36:57.054Z,16.90
2019-04-20T23:39:30.166Z,15.50
2019-04-20T23:42:03.379Z,16.87
2019-04-20T23:44:58.046Z,16.30
2019-04-20T23:47:57.429Z,16.40
2019-04-20T23:50:40.993Z,16.20
2019-04-20T23:53:18.195Z,16.23
2019-04-20T23:55:25.782Z,17.13
2019-04-20T23:57:59.492Z,17.43
